sensor_id;sensor_type;location;lat;lon;timestamp;pressure;altitude;pressure_sealevel;temperature;humidity
35806;BME280;21925;44.608;11.580;2022-07-23T00:01:23;101423.44;;;27.48;70.67
35806;BME280;21925;44.608;11.580;2022-07-23T00:03:49;101412.25;;;27.44;70.07
35806;BME280;21925;44.608;11.580;2022-07-23T00:06:15;101400.22;;;27.16;71.68
35806;BME280;21925;44.608;11.580;2022-07-23T00:08:41;101409.47;;;27.00;72.74
35806;BME280;21925;44.608;11.580;2022-07-23T00:11:07;101413.34;;;27.06;71.73
35806;BME280;21925;44.608;11.580;2022-07-23T00:13:33;101389.31;;;26.86;72.93
35806;BME280;21925;44.608;11.580;2022-07-23T00:15:59;101420.22;;;26.89;71.34
35806;BME280;21925;44.608;11.580;2022-07-23T00:18:24;101418.72;;;26.85;73.12
35806;BME280;21925;44.608;11.580;2022-07-23T00:20:50;101412.38;;;26.81;72.78
35806;BME280;21925;44.608;11.580;2022-07-23T00:23:16;101411.94;;;26.82;71.81
35806;BME280;21925;44.608;11.580;2022-07-23T00:25:42;101397.19;;;26.78;70.55
35806;BME280;21925;44.608;11.580;2022-07-23T00:28:08;101402.44;;;26.92;70.77
35806;BME280;21925;44.608;11.580;2022-07-23T00:30:34;101392.94;;;26.86;71.31
35806;BME280;21925;44.608;11.580;2022-07-23T00:33:02;101402.44;;;26.92;71.12
35806;BME280;21925;44.608;11.580;2022-07-23T00:35:30;101403.28;;;26.61;70.37
35806;BME280;21925;44.608;11.580;2022-07-23T00:37:57;101409.13;;;26.51;70.47
35806;BME280;21925;44.608;11.580;2022-07-23T00:40:23;101405.00;;;26.39;71.53
35806;BME280;21925;44.608;11.580;2022-07-23T00:42:49;101396.44;;;26.27;73.31
35806;BME280;21925;44.608;11.580;2022-07-23T00:45:15;101409.97;;;26.16;73.99
35806;BME280;21925;44.608;11.580;2022-07-23T00:47:40;101406.03;;;25.94;75.74
35806;BME280;21925;44.608;11.580;2022-07-23T00:50:07;101404.66;;;26.02;75.58
35806;BME280;21925;44.608;11.580;2022-07-23T00:52:35;101401.50;;;26.00;76.75
35806;BME280;21925;44.608;11.580;2022-07-23T00:55:01;101398.50;;;25.91;76.04
35806;BME280;21925;44.608;11.580;2022-07-23T00:57:27;101400.34;;;25.97;76.76
35806;BME280;21925;44.608;11.580;2022-07-23T00:59:53;101388.34;;;26.13;75.63
35806;BME280;21925;44.608;11.580;2022-07-23T01:02:19;101385.97;;;26.11;76.00
35806;BME280;21925;44.608;11.580;2022-07-23T01:04:45;101391.81;;;26.01;75.66
35806;BME280;21925;44.608;11.580;2022-07-23T01:07:11;101383.38;;;26.01;76.00
35806;BME280;21925;44.608;11.580;2022-07-23T01:09:37;101386.44;;;25.90;76.55
35806;BME280;21925;44.608;11.580;2022-07-23T01:12:03;101380.56;;;26.01;75.96
35806;BME280;21925;44.608;11.580;2022-07-23T01:14:30;101388.16;;;26.04;76.56
35806;BME280;21925;44.608;11.580;2022-07-23T01:16:56;101380.38;;;25.76;76.40
35806;BME280;21925;44.608;11.580;2022-07-23T01:19:22;101381.97;;;25.74;75.99
35806;BME280;21925;44.608;11.580;2022-07-23T01:21:49;101377.59;;;25.53;77.51
35806;BME280;21925;44.608;11.580;2022-07-23T01:24:16;101382.22;;;25.63;77.14
35806;BME280;21925;44.608;11.580;2022-07-23T01:26:52;101396.03;;;25.54;77.82
35806;BME280;21925;44.608;11.580;2022-07-23T01:29:18;101371.97;;;25.53;77.60
35806;BME280;21925;44.608;11.580;2022-07-23T01:31:45;101374.53;;;25.48;77.92
35806;BME280;21925;44.608;11.580;2022-07-23T01:34:11;101387.13;;;25.59;75.46
35806;BME280;21925;44.608;11.580;2022-07-23T01:36:36;101378.84;;;25.72;75.48
35806;BME280;21925;44.608;11.580;2022-07-23T01:39:03;101376.97;;;25.84;75.25
35806;BME280;21925;44.608;11.580;2022-07-23T01:41:30;101379.16;;;25.93;75.15
35806;BME280;21925;44.608;11.580;2022-07-23T01:43:56;101382.50;;;25.88;74.95
35806;BME280;21925;44.608;11.580;2022-07-23T01:46:22;101379.41;;;25.82;76.15
35806;BME280;21925;44.608;11.580;2022-07-23T01:48:49;101381.94;;;25.77;78.42
35806;BME280;21925;44.608;11.580;2022-07-23T01:51:38;101386.00;;;25.76;78.53
35806;BME280;21925;44.608;11.580;2022-07-23T01:54:23;101386.81;;;25.73;76.83
35806;BME280;21925;44.608;11.580;2022-07-23T01:56:49;101375.81;;;25.63;77.69
35806;BME280;21925;44.608;11.580;2022-07-23T01:59:15;101381.63;;;25.72;76.92
35806;BME280;21925;44.608;11.580;2022-07-23T02:01:41;101369.09;;;25.57;76.36
35806;BME280;21925;44.608;11.580;2022-07-23T02:04:06;101375.44;;;25.61;76.09
35806;BME280;21925;44.608;11.580;2022-07-23T02:06:32;101377.75;;;25.66;76.25
35806;BME280;21925;44.608;11.580;2022-07-23T02:08:57;101386.53;;;25.48;78.34
35806;BME280;21925;44.608;11.580;2022-07-23T02:11:23;101389.56;;;25.57;77.87
35806;BME280;21925;44.608;11.580;2022-07-23T02:13:49;101403.75;;;25.50;78.83
35806;BME280;21925;44.608;11.580;2022-07-23T02:16:14;101390.88;;;25.33;79.43
35806;BME280;21925;44.608;11.580;2022-07-23T02:18:40;101368.94;;;25.05;78.26
35806;BME280;21925;44.608;11.580;2022-07-23T02:21:06;101404.31;;;24.99;82.37
35806;BME280;21925;44.608;11.580;2022-07-23T02:23:31;101404.53;;;24.89;84.58
35806;BME280;21925;44.608;11.580;2022-07-23T02:25:57;101376.66;;;24.79;83.29
35806;BME280;21925;44.608;11.580;2022-07-23T02:28:23;101394.69;;;25.00;81.41
35806;BME280;21925;44.608;11.580;2022-07-23T02:30:48;101398.66;;;25.03;80.94
35806;BME280;21925;44.608;11.580;2022-07-23T02:33:14;101399.34;;;25.10;79.65
35806;BME280;21925;44.608;11.580;2022-07-23T02:35:40;101407.25;;;25.15;78.06
35806;BME280;21925;44.608;11.580;2022-07-23T02:38:07;101408.09;;;25.12;78.29
35806;BME280;21925;44.608;11.580;2022-07-23T02:40:32;101398.56;;;25.06;78.12
35806;BME280;21925;44.608;11.580;2022-07-23T02:42:58;101416.22;;;25.07;79.58
35806;BME280;21925;44.608;11.580;2022-07-23T02:45:24;101401.97;;;24.75;83.54
35806;BME280;21925;44.608;11.580;2022-07-23T02:47:51;101395.06;;;24.80;83.69
35806;BME280;21925;44.608;11.580;2022-07-23T02:50:17;101403.91;;;24.78;84.60
35806;BME280;21925;44.608;11.580;2022-07-23T02:52:43;101409.44;;;24.82;85.24
35806;BME280;21925;44.608;11.580;2022-07-23T02:55:09;101409.09;;;24.80;86.29
35806;BME280;21925;44.608;11.580;2022-07-23T02:57:34;101421.50;;;24.82;86.84
35806;BME280;21925;44.608;11.580;2022-07-23T03:00:00;101422.50;;;24.69;89.29
35806;BME280;21925;44.608;11.580;2022-07-23T03:02:26;101414.81;;;24.50;91.89
35806;BME280;21925;44.608;11.580;2022-07-23T03:04:52;101435.59;;;24.26;91.64
35806;BME280;21925;44.608;11.580;2022-07-23T03:07:18;101428.38;;;24.25;92.65
35806;BME280;21925;44.608;11.580;2022-07-23T03:09:43;101435.66;;;24.49;90.74
35806;BME280;21925;44.608;11.580;2022-07-23T03:12:09;101431.41;;;24.37;90.59
35806;BME280;21925;44.608;11.580;2022-07-23T03:14:35;101438.66;;;24.35;89.57
35806;BME280;21925;44.608;11.580;2022-07-23T03:17:00;101434.56;;;24.43;89.55
35806;BME280;21925;44.608;11.580;2022-07-23T03:19:26;101416.00;;;24.22;92.90
35806;BME280;21925;44.608;11.580;2022-07-23T03:21:52;101437.00;;;24.37;94.26
35806;BME280;21925;44.608;11.580;2022-07-23T03:24:17;101440.91;;;24.47;94.16
35806;BME280;21925;44.608;11.580;2022-07-23T03:26:43;101448.13;;;24.44;94.92
35806;BME280;21925;44.608;11.580;2022-07-23T03:29:09;101447.81;;;24.39;95.04
35806;BME280;21925;44.608;11.580;2022-07-23T03:31:35;101426.44;;;24.22;95.08
35806;BME280;21925;44.608;11.580;2022-07-23T03:34:01;101465.38;;;24.43;95.45
35806;BME280;21925;44.608;11.580;2022-07-23T03:36:26;101448.22;;;24.11;95.18
35806;BME280;21925;44.608;11.580;2022-07-23T03:38:54;101468.78;;;24.27;94.39
35806;BME280;21925;44.608;11.580;2022-07-23T03:41:20;101468.38;;;24.29;95.10
35806;BME280;21925;44.608;11.580;2022-07-23T03:43:46;101433.53;;;24.30;89.26
35806;BME280;21925;44.608;11.580;2022-07-23T03:46:12;101471.78;;;24.40;94.46
35806;BME280;21925;44.608;11.580;2022-07-23T03:48:38;101446.22;;;24.38;95.32
35806;BME280;21925;44.608;11.580;2022-07-23T03:51:03;101479.72;;;24.48;95.71
35806;BME280;21925;44.608;11.580;2022-07-23T03:53:29;101463.59;;;24.26;95.05
35806;BME280;21925;44.608;11.580;2022-07-23T03:55:55;101468.84;;;24.24;96.39
35806;BME280;21925;44.608;11.580;2022-07-23T03:58:22;101464.19;;;24.40;93.90
35806;BME280;21925;44.608;11.580;2022-07-23T04:00:47;101462.72;;;24.32;93.60
35806;BME280;21925;44.608;11.580;2022-07-23T04:03:14;101468.47;;;24.52;92.98
35806;BME280;21925;44.608;11.580;2022-07-23T04:05:41;101448.84;;;24.52;90.56
35806;BME280;21925;44.608;11.580;2022-07-23T04:08:10;101466.53;;;24.72;89.52
35806;BME280;21925;44.608;11.580;2022-07-23T04:10:39;101471.03;;;24.66;88.40
35806;BME280;21925;44.608;11.580;2022-07-23T04:13:06;101456.16;;;24.46;90.23
35806;BME280;21925;44.608;11.580;2022-07-23T04:15:32;101467.69;;;24.51;89.82
35806;BME280;21925;44.608;11.580;2022-07-23T04:17:57;101477.97;;;24.58;88.85
35806;BME280;21925;44.608;11.580;2022-07-23T04:20:29;101482.97;;;24.47;90.33
35806;BME280;21925;44.608;11.580;2022-07-23T04:22:58;101479.91;;;24.34;90.25
35806;BME280;21925;44.608;11.580;2022-07-23T04:25:24;101483.81;;;24.40;88.98
35806;BME280;21925;44.608;11.580;2022-07-23T04:27:50;101481.91;;;24.34;89.26
35806;BME280;21925;44.608;11.580;2022-07-23T04:30:16;101479.09;;;24.34;88.86
35806;BME280;21925;44.608;11.580;2022-07-23T04:32:42;101473.28;;;24.51;85.64
35806;BME280;21925;44.608;11.580;2022-07-23T04:35:17;101494.41;;;24.56;87.48
35806;BME280;21925;44.608;11.580;2022-07-23T04:37:43;101463.22;;;24.24;87.15
35806;BME280;21925;44.608;11.580;2022-07-23T04:40:09;101488.53;;;24.50;85.99
35806;BME280;21925;44.608;11.580;2022-07-23T04:42:36;101487.06;;;24.39;87.35
35806;BME280;21925;44.608;11.580;2022-07-23T04:45:02;101482.16;;;24.46;86.12
35806;BME280;21925;44.608;11.580;2022-07-23T04:47:29;101473.06;;;24.35;85.81
35806;BME280;21925;44.608;11.580;2022-07-23T04:49:57;101485.50;;;24.64;83.09
35806;BME280;21925;44.608;11.580;2022-07-23T04:52:23;101494.38;;;24.86;82.63
35806;BME280;21925;44.608;11.580;2022-07-23T04:54:49;101467.72;;;24.97;82.11
35806;BME280;21925;44.608;11.580;2022-07-23T04:57:15;101486.09;;;25.24;80.71
35806;BME280;21925;44.608;11.580;2022-07-23T04:59:41;101481.63;;;25.27;79.66
35806;BME280;21925;44.608;11.580;2022-07-23T05:02:08;101473.03;;;25.14;81.27
35806;BME280;21925;44.608;11.580;2022-07-23T05:04:34;101482.19;;;25.18;81.69
35806;BME280;21925;44.608;11.580;2022-07-23T05:07:01;101486.59;;;25.19;81.70
35806;BME280;21925;44.608;11.580;2022-07-23T05:09:27;101461.81;;;25.14;79.98
35806;BME280;21925;44.608;11.580;2022-07-23T05:11:53;101467.88;;;25.32;79.70
35806;BME280;21925;44.608;11.580;2022-07-23T05:14:20;101459.53;;;25.29;79.91
35806;BME280;21925;44.608;11.580;2022-07-23T05:16:46;101468.13;;;25.41;79.79
35806;BME280;21925;44.608;11.580;2022-07-23T05:19:17;101481.03;;;25.58;78.77
35806;BME280;21925;44.608;11.580;2022-07-23T05:21:44;101467.28;;;25.64;78.00
35806;BME280;21925;44.608;11.580;2022-07-23T05:24:10;101468.59;;;25.79;77.58
35806;BME280;21925;44.608;11.580;2022-07-23T05:26:36;101467.84;;;25.94;76.26
35806;BME280;21925;44.608;11.580;2022-07-23T05:29:02;101441.88;;;25.90;79.10
35806;BME280;21925;44.608;11.580;2022-07-23T05:31:28;101431.91;;;26.05;79.06
35806;BME280;21925;44.608;11.580;2022-07-23T05:33:54;101479.22;;;26.45;75.78
35806;BME280;21925;44.608;11.580;2022-07-23T05:36:20;101483.38;;;26.72;74.21
35806;BME280;21925;44.608;11.580;2022-07-23T05:38:51;101488.91;;;26.76;72.39
35806;BME280;21925;44.608;11.580;2022-07-23T05:41:17;101473.44;;;26.84;72.15
35806;BME280;21925;44.608;11.580;2022-07-23T05:43:42;101472.28;;;26.97;71.95
35806;BME280;21925;44.608;11.580;2022-07-23T05:46:10;101481.34;;;27.21;70.08
35806;BME280;21925;44.608;11.580;2022-07-23T05:48:38;101454.41;;;27.20;69.05
35806;BME280;21925;44.608;11.580;2022-07-23T05:51:10;101450.16;;;27.28;68.69
35806;BME280;21925;44.608;11.580;2022-07-23T05:53:35;101488.38;;;27.57;68.77
35806;BME280;21925;44.608;11.580;2022-07-23T05:56:20;101490.53;;;27.81;67.75
35806;BME280;21925;44.608;11.580;2022-07-23T05:58:46;101468.66;;;27.85;65.99
35806;BME280;21925;44.608;11.580;2022-07-23T06:01:14;101471.09;;;28.12;66.18
35806;BME280;21925;44.608;11.580;2022-07-23T06:03:49;101468.19;;;28.27;65.06
35806;BME280;21925;44.608;11.580;2022-07-23T06:06:15;101459.84;;;28.36;64.19
35806;BME280;21925;44.608;11.580;2022-07-23T06:08:40;101454.34;;;28.45;63.68
35806;BME280;21925;44.608;11.580;2022-07-23T06:11:08;101481.31;;;28.59;62.90
35806;BME280;21925;44.608;11.580;2022-07-23T06:13:35;101477.59;;;28.74;62.79
35806;BME280;21925;44.608;11.580;2022-07-23T06:16:00;101479.03;;;29.04;62.26
35806;BME280;21925;44.608;11.580;2022-07-23T06:18:26;101450.44;;;29.14;61.74
35806;BME280;21925;44.608;11.580;2022-07-23T06:20:53;101462.31;;;29.43;62.02
35806;BME280;21925;44.608;11.580;2022-07-23T06:23:19;101480.63;;;29.72;60.97
35806;BME280;21925;44.608;11.580;2022-07-23T06:25:45;101481.41;;;29.73;60.08
35806;BME280;21925;44.608;11.580;2022-07-23T06:28:10;101456.41;;;29.71;59.77
35806;BME280;21925;44.608;11.580;2022-07-23T06:30:36;101469.59;;;30.08;59.93
35806;BME280;21925;44.608;11.580;2022-07-23T06:33:02;101467.03;;;30.31;60.11
35806;BME280;21925;44.608;11.580;2022-07-23T06:35:28;101466.75;;;30.38;59.02
35806;BME280;21925;44.608;11.580;2022-07-23T06:37:54;101451.03;;;30.46;58.37
35806;BME280;21925;44.608;11.580;2022-07-23T06:40:20;101452.22;;;30.49;57.98
35806;BME280;21925;44.608;11.580;2022-07-23T06:42:46;101470.44;;;30.96;58.02
35806;BME280;21925;44.608;11.580;2022-07-23T06:45:17;101479.66;;;31.18;56.05
35806;BME280;21925;44.608;11.580;2022-07-23T06:47:43;101475.53;;;31.28;54.93
35806;BME280;21925;44.608;11.580;2022-07-23T06:50:10;101485.84;;;31.61;54.34
35806;BME280;21925;44.608;11.580;2022-07-23T06:52:36;101485.03;;;31.78;53.91
35806;BME280;21925;44.608;11.580;2022-07-23T06:55:02;101467.00;;;31.99;54.42
35806;BME280;21925;44.608;11.580;2022-07-23T06:57:28;101457.88;;;32.13;53.22
35806;BME280;21925;44.608;11.580;2022-07-23T06:59:53;101477.00;;;32.45;51.58
35806;BME280;21925;44.608;11.580;2022-07-23T07:02:19;101463.13;;;32.47;50.57
35806;BME280;21925;44.608;11.580;2022-07-23T07:04:46;101480.63;;;32.87;50.26
35806;BME280;21925;44.608;11.580;2022-07-23T07:07:12;101470.53;;;33.09;49.96
35806;BME280;21925;44.608;11.580;2022-07-23T07:09:38;101484.38;;;33.39;48.76
35806;BME280;21925;44.608;11.580;2022-07-23T07:12:04;101480.16;;;33.73;47.71
35806;BME280;21925;44.608;11.580;2022-07-23T07:14:30;101485.31;;;33.83;48.50
35806;BME280;21925;44.608;11.580;2022-07-23T07:16:55;101463.91;;;33.88;45.61
35806;BME280;21925;44.608;11.580;2022-07-23T07:19:21;101472.94;;;33.86;46.27
35806;BME280;21925;44.608;11.580;2022-07-23T07:21:47;101462.16;;;33.90;44.91
35806;BME280;21925;44.608;11.580;2022-07-23T07:24:13;101490.47;;;34.08;44.70
35806;BME280;21925;44.608;11.580;2022-07-23T07:26:39;101490.84;;;34.30;43.71
35806;BME280;21925;44.608;11.580;2022-07-23T07:29:05;101471.50;;;34.83;43.20
35806;BME280;21925;44.608;11.580;2022-07-23T07:31:31;101485.47;;;34.81;41.56
35806;BME280;21925;44.608;11.580;2022-07-23T07:33:57;101477.66;;;34.96;41.21
35806;BME280;21925;44.608;11.580;2022-07-23T07:36:23;101482.41;;;35.18;41.21
35806;BME280;21925;44.608;11.580;2022-07-23T07:38:49;101493.97;;;34.95;40.90
35806;BME280;21925;44.608;11.580;2022-07-23T07:41:15;101487.06;;;35.01;40.58
35806;BME280;21925;44.608;11.580;2022-07-23T07:43:41;101489.31;;;34.97;39.48
35806;BME280;21925;44.608;11.580;2022-07-23T07:46:07;101484.94;;;34.97;39.70
35806;BME280;21925;44.608;11.580;2022-07-23T07:48:37;101493.53;;;35.16;39.83
35806;BME280;21925;44.608;11.580;2022-07-23T07:51:06;101476.13;;;35.34;39.35
35806;BME280;21925;44.608;11.580;2022-07-23T07:53:32;101495.66;;;35.41;37.85
35806;BME280;21925;44.608;11.580;2022-07-23T07:55:58;101487.81;;;35.76;37.52
35806;BME280;21925;44.608;11.580;2022-07-23T07:58:24;101500.38;;;35.44;35.86
35806;BME280;21925;44.608;11.580;2022-07-23T08:00:49;101482.19;;;35.62;36.04
35806;BME280;21925;44.608;11.580;2022-07-23T08:03:16;101493.50;;;35.76;34.79
35806;BME280;21925;44.608;11.580;2022-07-23T08:05:43;101491.72;;;35.98;35.06
35806;BME280;21925;44.608;11.580;2022-07-23T08:08:08;101491.03;;;35.89;34.45
35806;BME280;21925;44.608;11.580;2022-07-23T08:10:40;101496.94;;;36.31;35.13
35806;BME280;21925;44.608;11.580;2022-07-23T08:13:06;101500.97;;;36.19;34.52
35806;BME280;21925;44.608;11.580;2022-07-23T08:15:32;101501.03;;;36.50;35.27
35806;BME280;21925;44.608;11.580;2022-07-23T08:17:58;101464.88;;;36.16;35.34
35806;BME280;21925;44.608;11.580;2022-07-23T08:20:25;101469.84;;;36.52;35.34
35806;BME280;21925;44.608;11.580;2022-07-23T08:22:59;101503.06;;;36.80;35.04
35806;BME280;21925;44.608;11.580;2022-07-23T08:25:37;101493.91;;;36.70;34.62
35806;BME280;21925;44.608;11.580;2022-07-23T08:28:06;101492.03;;;36.98;34.09
35806;BME280;21925;44.608;11.580;2022-07-23T08:30:32;101492.69;;;36.82;32.92
35806;BME280;21925;44.608;11.580;2022-07-23T08:33:06;101512.44;;;36.80;33.12
35806;BME280;21925;44.608;11.580;2022-07-23T08:35:56;101510.53;;;37.08;34.52
35806;BME280;21925;44.608;11.580;2022-07-23T08:38:35;101477.16;;;36.89;34.12
35806;BME280;21925;44.608;11.580;2022-07-23T08:41:01;101517.34;;;37.16;33.66
35806;BME280;21925;44.608;11.580;2022-07-23T08:43:29;101507.75;;;37.19;34.30
35806;BME280;21925;44.608;11.580;2022-07-23T08:45:56;101503.72;;;37.42;33.47
35806;BME280;21925;44.608;11.580;2022-07-23T08:48:25;101510.88;;;37.21;33.56
35806;BME280;21925;44.608;11.580;2022-07-23T08:50:56;101505.81;;;37.42;34.93
35806;BME280;21925;44.608;11.580;2022-07-23T08:53:24;101498.56;;;37.52;35.47
35806;BME280;21925;44.608;11.580;2022-07-23T08:55:53;101500.16;;;37.63;35.10
35806;BME280;21925;44.608;11.580;2022-07-23T08:58:19;101499.09;;;37.55;33.72
35806;BME280;21925;44.608;11.580;2022-07-23T09:00:52;101501.91;;;37.45;34.23
35806;BME280;21925;44.608;11.580;2022-07-23T09:03:26;101510.44;;;37.97;34.77
35806;BME280;21925;44.608;11.580;2022-07-23T09:05:53;101493.44;;;37.72;35.54
35806;BME280;21925;44.608;11.580;2022-07-23T09:08:21;101506.44;;;37.67;36.04
35806;BME280;21925;44.608;11.580;2022-07-23T09:11:02;101494.53;;;37.91;35.89
35806;BME280;21925;44.608;11.580;2022-07-23T09:13:39;101502.56;;;37.76;35.90
35806;BME280;21925;44.608;11.580;2022-07-23T09:16:12;101506.25;;;37.93;36.08
35806;BME280;21925;44.608;11.580;2022-07-23T09:18:48;101507.31;;;38.17;35.15
35806;BME280;21925;44.608;11.580;2022-07-23T09:21:17;101505.63;;;37.67;36.52
35806;BME280;21925;44.608;11.580;2022-07-23T09:26:22;101508.34;;;37.87;36.44
35806;BME280;21925;44.608;11.580;2022-07-23T09:31:31;101482.84;;;38.05;36.68
35806;BME280;21925;44.608;11.580;2022-07-23T09:34:15;101498.25;;;38.40;35.87
35806;BME280;21925;44.608;11.580;2022-07-23T09:36:41;101488.38;;;38.52;36.44
35806;BME280;21925;44.608;11.580;2022-07-23T09:39:08;101479.75;;;38.74;35.54
35806;BME280;21925;44.608;11.580;2022-07-23T09:41:39;101473.75;;;38.50;36.65
35806;BME280;21925;44.608;11.580;2022-07-23T09:44:15;101485.16;;;38.94;35.31
35806;BME280;21925;44.608;11.580;2022-07-23T09:46:42;101480.03;;;38.65;35.66
35806;BME280;21925;44.608;11.580;2022-07-23T09:49:17;101468.16;;;39.23;35.49
35806;BME280;21925;44.608;11.580;2022-07-23T09:51:51;101480.72;;;39.10;35.56
35806;BME280;21925;44.608;11.580;2022-07-23T09:57:01;101469.50;;;39.74;34.92
35806;BME280;21925;44.608;11.580;2022-07-23T09:59:29;101474.84;;;39.53;34.15
35806;BME280;21925;44.608;11.580;2022-07-23T10:01:58;101467.25;;;39.56;34.47
35806;BME280;21925;44.608;11.580;2022-07-23T10:04:26;101471.53;;;39.79;34.03
35806;BME280;21925;44.608;11.580;2022-07-23T10:07:08;101446.13;;;39.53;34.24
35806;BME280;21925;44.608;11.580;2022-07-23T10:10:05;101462.72;;;39.71;33.98
35806;BME280;21925;44.608;11.580;2022-07-23T10:12:57;101462.72;;;39.71;33.69
35806;BME280;21925;44.608;11.580;2022-07-23T10:15:35;101458.75;;;39.80;33.73
35806;BME280;21925;44.608;11.580;2022-07-23T10:18:01;101458.63;;;40.02;34.53
35806;BME280;21925;44.608;11.580;2022-07-23T10:20:27;101447.63;;;40.64;32.97
35806;BME280;21925;44.608;11.580;2022-07-23T10:23:27;101447.91;;;40.61;33.71
35806;BME280;21925;44.608;11.580;2022-07-23T10:26:26;101452.19;;;40.54;33.40
35806;BME280;21925;44.608;11.580;2022-07-23T10:29:11;101446.19;;;40.52;33.16
35806;BME280;21925;44.608;11.580;2022-07-23T10:32:29;101436.88;;;41.36;33.84
35806;BME280;21925;44.608;11.580;2022-07-23T10:35:04;101442.72;;;41.07;32.17
35806;BME280;21925;44.608;11.580;2022-07-23T10:37:39;101441.50;;;41.21;33.48
35806;BME280;21925;44.608;11.580;2022-07-23T10:40:18;101437.91;;;41.57;32.57
35806;BME280;21925;44.608;11.580;2022-07-23T10:42:46;101418.78;;;40.75;31.94
35806;BME280;21925;44.608;11.580;2022-07-23T10:45:23;101427.78;;;41.51;32.00
35806;BME280;21925;44.608;11.580;2022-07-23T10:47:50;101429.09;;;41.31;31.69
35806;BME280;21925;44.608;11.580;2022-07-23T10:50:27;101427.03;;;41.45;32.02
35806;BME280;21925;44.608;11.580;2022-07-23T10:57:56;101424.81;;;41.75;33.05
35806;BME280;21925;44.608;11.580;2022-07-23T11:00:23;101416.72;;;40.70;33.35
35806;BME280;21925;44.608;11.580;2022-07-23T11:02:52;101423.16;;;41.42;32.70
35806;BME280;21925;44.608;11.580;2022-07-23T11:05:24;101418.59;;;41.52;32.77
35806;BME280;21925;44.608;11.580;2022-07-23T11:10:39;101421.44;;;42.20;33.84
35806;BME280;21925;44.608;11.580;2022-07-23T11:24:04;101405.38;;;42.56;32.95
35806;BME280;21925;44.608;11.580;2022-07-23T11:34:35;101383.19;;;42.77;31.71
35806;BME280;21925;44.608;11.580;2022-07-23T11:37:04;101384.09;;;43.57;32.14
35806;BME280;21925;44.608;11.580;2022-07-23T11:39:31;101376.97;;;43.58;32.37
35806;BME280;21925;44.608;11.580;2022-07-23T11:41:58;101364.84;;;43.46;32.86
35806;BME280;21925;44.608;11.580;2022-07-23T11:44:31;101380.91;;;44.01;32.16
35806;BME280;21925;44.608;11.580;2022-07-23T11:46:58;101375.84;;;43.81;31.69
35806;BME280;21925;44.608;11.580;2022-07-23T11:49:24;101344.34;;;43.37;31.51
35806;BME280;21925;44.608;11.580;2022-07-23T11:52:13;101349.84;;;43.81;32.01
35806;BME280;21925;44.608;11.580;2022-07-23T11:55:06;101354.63;;;43.58;31.61
35806;BME280;21925;44.608;11.580;2022-07-23T11:57:37;101346.03;;;43.33;32.01
35806;BME280;21925;44.608;11.580;2022-07-23T12:00:07;101340.38;;;43.27;31.99
35806;BME280;21925;44.608;11.580;2022-07-23T12:02:46;101342.94;;;43.84;31.55
35806;BME280;21925;44.608;11.580;2022-07-23T12:05:14;101333.41;;;44.37;32.01
35806;BME280;21925;44.608;11.580;2022-07-23T12:07:45;101341.59;;;44.54;31.68
35806;BME280;21925;44.608;11.580;2022-07-23T12:10:21;101340.81;;;44.81;31.62
35806;BME280;21925;44.608;11.580;2022-07-23T12:13:13;101333.88;;;44.49;31.04
35806;BME280;21925;44.608;11.580;2022-07-23T12:15:40;101339.28;;;44.52;32.21
35806;BME280;21925;44.608;11.580;2022-07-23T12:18:09;101324.75;;;44.17;32.19
35806;BME280;21925;44.608;11.580;2022-07-23T12:20:38;101324.63;;;44.02;31.34
35806;BME280;21925;44.608;11.580;2022-07-23T12:23:06;101314.22;;;44.07;32.34
35806;BME280;21925;44.608;11.580;2022-07-23T12:25:35;101319.16;;;43.78;31.53
35806;BME280;21925;44.608;11.580;2022-07-23T12:28:11;101320.91;;;45.13;31.08
35806;BME280;21925;44.608;11.580;2022-07-23T12:30:48;101321.56;;;44.91;30.24
35806;BME280;21925;44.608;11.580;2022-07-23T12:33:21;101320.97;;;44.93;30.74
35806;BME280;21925;44.608;11.580;2022-07-23T12:35:48;101307.41;;;44.17;30.73
35806;BME280;21925;44.608;11.580;2022-07-23T12:38:17;101311.09;;;43.97;30.34
35806;BME280;21925;44.608;11.580;2022-07-23T12:40:52;101314.53;;;44.72;30.43
35806;BME280;21925;44.608;11.580;2022-07-23T12:43:29;101312.44;;;44.80;30.79
35806;BME280;21925;44.608;11.580;2022-07-23T12:46:02;101307.41;;;43.76;30.88
35806;BME280;21925;44.608;11.580;2022-07-23T12:48:39;101314.75;;;44.46;30.86
35806;BME280;21925;44.608;11.580;2022-07-23T12:51:15;101309.09;;;44.40;31.09
35806;BME280;21925;44.608;11.580;2022-07-23T12:53:45;101302.28;;;45.51;31.35
35806;BME280;21925;44.608;11.580;2022-07-23T12:56:20;101299.00;;;45.70;31.35
35806;BME280;21925;44.608;11.580;2022-07-23T12:58:49;101289.88;;;44.78;30.89
35806;BME280;21925;44.608;11.580;2022-07-23T13:06:27;101283.03;;;44.61;31.49
35806;BME280;21925;44.608;11.580;2022-07-23T13:08:53;101285.00;;;44.66;30.56
35806;BME280;21925;44.608;11.580;2022-07-23T13:11:19;101280.44;;;44.85;30.88
35806;BME280;21925;44.608;11.580;2022-07-23T13:13:44;101276.00;;;44.49;30.86
35806;BME280;21925;44.608;11.580;2022-07-23T13:16:10;101273.69;;;44.83;30.32
35806;BME280;21925;44.608;11.580;2022-07-23T13:18:36;101261.22;;;44.04;31.38
35806;BME280;21925;44.608;11.580;2022-07-23T13:21:02;101278.63;;;44.39;32.00
35806;BME280;21925;44.608;11.580;2022-07-23T13:23:28;101288.38;;;44.57;30.95
35806;BME280;21925;44.608;11.580;2022-07-23T13:25:54;101276.31;;;44.66;30.79
35806;BME280;21925;44.608;11.580;2022-07-23T13:28:21;101269.25;;;44.46;30.51